createdAt,value
2019-05-20T19:46:25.472Z,96721.78
2019-05-20T19:48:53.847Z,96722.10
2019-05-20T19:51:22.357Z,96725.94
2019-05-20T19:53:50.700Z,96719.84
2019-05-20T19:56:19.058Z,96719.67
2019-05-20T19:58:47.364Z,96731.13
2019-05-20T20:01:15.871Z,96726.59
2019-05-20T20:03:44.264Z,96728.24
2019-05-20T20:06:12.574Z,96739.08
2019-05-20T20:08:41.224Z,96739.60
2019-05-20T20:11:09.576Z,96737.48
2019-05-20T20:13:37.898Z,96741.09
2019-05-20T20:16:06.500Z,96742.56
2019-05-20T20:18:34.862Z,96742.34
2019-05-20T20:21:03.296Z,96740.11
2019-05-20T20:23:31.764Z,96743.03
2019-05-20T20:26:00.426Z,96743.59
2019-05-20T20:28:28.899Z,96745.97
2019-05-20T20:30:57.271Z,96749.80
2019-05-20T20:33:25.754Z,96745.97
2019-05-20T20:35:54.227Z,96750.70
2019-05-20T20:38:22.527Z,96753.62
2019-05-20T20:40:51.010Z,96753.28
2019-05-20T20:43:19.611Z,96758.23
2019-05-20T20:45:48.003Z,96759.72
2019-05-20T20:48:16.424Z,96759.83
2019-05-20T20:50:44.936Z,96763.76
2019-05-20T20:53:13.258Z,96772.99
2019-05-20T20:55:41.589Z,96771.64
2019-05-20T20:58:09.988Z,96763.84
2019-05-20T21:00:38.387Z,96773.63
2019-05-20T21:03:06.900Z,96774.63
2019-05-20T21:05:35.436Z,96773.61
2019-05-20T21:08:03.864Z,96761.09
2019-05-20T21:10:32.375Z,96760.06
2019-05-20T21:13:00.740Z,96768.14
2019-05-20T21:15:29.067Z,96774.56
2019-05-20T21:17:57.469Z,96770.84
2019-05-20T21:20:25.914Z,96778.72
2019-05-20T21:22:54.528Z,96790.41
2019-05-20T21:25:22.941Z,96794.69
2019-05-20T21:27:51.293Z,96795.16
2019-05-20T21:30:19.906Z,96798.98
2019-05-20T21:32:48.310Z,96793.02
2019-05-20T21:35:16.605Z,96800.06
2019-05-20T21:37:45.043Z,96789.91
2019-05-20T21:40:13.479Z,96792.98
2019-05-20T21:42:41.780Z,96798.14
2019-05-20T21:45:10.193Z,96801.60
2019-05-20T21:47:38.579Z,96796.43
2019-05-20T21:50:07.461Z,96784.05
2019-05-20T21:52:35.777Z,96785.86
2019-05-20T21:55:05.568Z,96788.92
2019-05-20T21:57:34.164Z,96785.63
2019-05-20T22:00:03.404Z,96785.89
2019-05-20T22:02:31.776Z,96788.79
2019-05-20T22:05:00.203Z,96793.53
2019-05-20T22:07:28.847Z,96786.65
2019-05-20T22:09:57.250Z,96788.89
2019-05-20T22:12:25.663Z,96787.67
2019-05-20T22:14:55.553Z,96792.52
2019-05-20T22:17:24.151Z,96799.27
2019-05-20T22:19:52.533Z,96797.36
2019-05-20T22:22:41.826Z,96796.47
2019-05-20T22:25:10.226Z,96796.00
2019-05-20T22:27:38.543Z,96799.17
2019-05-20T22:30:08.046Z,96794.98
2019-05-20T22:32:36.498Z,96798.05
2019-05-20T22:35:06.982Z,96797.36
2019-05-20T22:37:35.588Z,96800.06
2019-05-20T22:40:06.172Z,96802.89
2019-05-20T22:42:34.722Z,96805.66
2019-05-20T22:45:03.141Z,96798.48
2019-05-20T22:47:31.463Z,96812.55
2019-05-20T22:49:59.885Z,96816.73
2019-05-20T22:52:28.335Z,96806.72
2019-05-20T22:54:56.805Z,96813.01
2019-05-20T22:57:25.126Z,96810.13
2019-05-20T22:59:53.492Z,96806.57
2019-05-20T23:02:21.833Z,96801.17
2019-05-20T23:04:50.212Z,96804.86
2019-05-20T23:07:18.612Z,96807.80
2019-05-20T23:09:47.085Z,96802.02
2019-05-20T23:12:15.488Z,96802.63
2019-05-20T23:14:43.787Z,96797.55
2019-05-20T23:17:12.209Z,96802.63
2019-05-20T23:19:40.579Z,96801.18
2019-05-20T23:22:08.920Z,96799.13
2019-05-20T23:24:37.423Z,96798.52
2019-05-20T23:27:07.065Z,96800.80
2019-05-20T23:29:35.360Z,96792.45
2019-05-20T23:32:03.740Z,96793.91
2019-05-20T23:34:32.175Z,96791.89
2019-05-20T23:37:00.638Z,96796.61
2019-05-20T23:39:29.032Z,96804.06
2019-05-20T23:41:57.325Z,96803.59
2019-05-20T23:44:25.703Z,96808.34
2019-05-20T23:46:54.077Z,96818.46
2019-05-20T23:49:22.588Z,96810.86
2019-05-20T23:51:51.079Z,96802.44
2019-05-20T23:54:19.447Z,96804.15
2019-05-20T23:56:47.750Z,96808.53
2019-05-20T23:59:16.076Z,96810.86
